Hlavní strana
METAR-TAF:

METAR-TAF

Letiště :

Svolvær, Norsko

zeměpisná šířka: 68-15N, zeměpisná délka: 014-40E, výška: 0 m

Aktuální stav počasí

Zpráva byla vytvořena před 23 minutami, v 11:20 UTC
Západní vítr 6 kt
Teplota 5°C
Vlhkost vzduchu 75%
Tlak 1002 hPa
Viditelnost 10 km a více
Polojasno ve výšce 1700 ft
Polojasno ve výšce 2500 ft
slabé dešťové přeháňky

METAR: ENSH 231120Z 27006KT 9999 -SHRA SCT017 SCT025 05/01 Q1002 RMK WIND 150FT 29006KT 230V040

Čas: 13:43 (11:43 UTC)

Předpověď počasí

Zpráva byla vytvořena před 3 hodinami a 43 minutami, v 08:00 UTC
Předpověď platná od 23 v 09 UTC do 23 v 18 UTC
Západní vítr 12 kt
Viditelnost 10 km a více
Skoro jasno ve výšce 1500 ft
Oblačno až skoro zataženo ve výšce 2500 ft
slabé dešťové přeháňky
Dočasný
od 23 v 09 UTC do 23 v 18 UTC
vítr z různých směrů 5 kt
Polojasno ve výšce 1500 ft, Cumulonimbus.

TAF: ENSH 230800Z 2309/2318 28012KT 9999 -SHRA FEW015 BKN025 TEMPO 2309/2318 VRB05KT SCT015CB

Stav a předpovědi počasí z více než 4 000 letišť (zprávy METAR a TAF).

Červené a žluté tečky na mapě představují dostupné meteorologické stanice.

Když kurzor umístíte na tečku, zobrazí se název stanice.

Pak kliknutím zobrazíte stav a předpověď počasí.

Chcete-li změnit mapu, kliknutím na zelené tlačítko se znaménkem +mapu přiblížíte, kliknutím na zelené tlačítko se znaménkem – mapu oddálíte a kliknutím na zelené šipky přejdete na sousední mapy.


METAR-TAF: